Time;durP1;ratioP1;P1;durP2;ratioP2;P2;SDS_P1;SDS_P2;PMS_P1;PMS_P2;Temp;Humidity;BMP_temperature;BMP_pressure;BME280_temperature;BME280_humidity;BME280_pressure;Samples;Min_cycle;Max_cycle;Signal;HPM_P1;HPM_P2
2023/03/14 00:00:36;;;;;;;0.90;0.63;;;8.80;99.90;;;;;;5053782;28;20460;-83
2023/03/14 00:03:02;;;;;;;1.00;1.00;;;8.80;99.90;;;;;;5052648;28;20037;-83
2023/03/14 00:05:27;;;;;;;0.43;0.43;;;8.90;87.90;;;;;;5060746;28;20048;-83
2023/03/14 00:07:53;;;;;;;0.77;0.63;;;9.00;1.00;;;;;;5072314;28;20386;-83
2023/03/14 00:10:20;;;;;;;0.22;0.22;;;9.00;1.00;;;;;;5072799;28;20048;-83
2023/03/14 00:12:45;;;;;;;0.10;0.10;;;9.00;99.90;;;;;;5057602;28;20049;-83
2023/03/14 00:15:11;;;;;;;5.07;2.00;;;9.10;99.90;;;;;;5053131;28;20045;-83
2023/03/14 00:17:38;;;;;;;0.00;0.00;;;9.20;99.90;;;;;;5052988;28;20045;-83
2023/03/14 00:20:10;;;;;;;0.30;0.30;;;9.30;83.70;;;;;;5052585;28;20390;-83
2023/03/14 00:22:40;;;;;;;0.45;0.45;;;9.50;1.00;;;;;;5050097;28;20462;-83
2023/03/14 00:25:07;;;;;;;2.47;0.17;;;9.50;1.00;;;;;;5052758;28;20587;-83
2023/03/14 00:27:33;;;;;;;1.95;1.55;;;9.60;99.90;;;;;;5051646;28;20045;-83
2023/03/14 00:29:59;;;;;;;0.43;0.35;;;9.80;99.90;;;;;;5053187;28;20048;-83
2023/03/14 00:32:24;;;;;;;2.50;1.45;;;9.90;99.90;;;;;;5053434;28;20049;-83
2023/03/14 00:34:50;;;;;;;0.00;0.00;;;9.90;99.90;;;;;;5055286;28;20064;-83
2023/03/14 00:37:16;;;;;;;0.68;0.43;;;9.90;99.90;;;;;;5057394;28;20041;-83
2023/03/14 00:39:41;;;;;;;0.35;0.22;;;10.00;99.90;;;;;;5057775;28;20055;-83
2023/03/14 00:42:07;;;;;;;0.25;0.25;;;10.20;2.90;;;;;;5056949;28;20044;-83
2023/03/14 00:44:33;;;;;;;3.30;1.70;;;10.40;1.00;;;;;;5057171;28;20041;-83
2023/03/14 00:46:59;;;;;;;5.90;1.45;;;10.30;1.00;;;;;;5056018;28;20057;-83
2023/03/14 00:49:25;;;;;;;3.50;0.75;;;10.40;99.90;;;;;;5054613;28;20091;-83
2023/03/14 00:51:51;;;;;;;7.88;1.20;;;10.50;99.90;;;;;;5056627;28;20037;-83
2023/03/14 00:54:17;;;;;;;3.72;1.08;;;10.70;99.90;;;;;;5057905;28;20082;-83
2023/03/14 00:56:43;;;;;;;0.38;0.30;;;10.70;99.90;;;;;;5057133;28;20120;-83
2023/03/14 00:59:09;;;;;;;28.13;1.85;;;10.60;99.90;;;;;;5057843;28;20072;-83
2023/03/14 01:01:35;;;;;;;0.10;0.10;;;10.60;99.90;;;;;;5057278;28;20044;-84
2023/03/14 01:04:01;;;;;;;1.38;1.27;;;10.50;99.90;;;;;;5057045;28;20052;-83
2023/03/14 01:06:28;;;;;;;0.17;0.17;;;10.40;99.90;;;;;;5056916;28;20049;-83
2023/03/14 01:08:55;;;;;;;1.77;1.65;;;10.40;99.90;;;;;;5056349;28;20037;-83
2023/03/14 01:11:27;;;;;;;0.50;0.30;;;10.40;99.90;;;;;;5056726;28;20041;-83
2023/03/14 01:13:52;;;;;;;0.55;0.55;;;10.30;99.90;;;;;;5056916;28;20483;-82
2023/03/14 01:16:20;;;;;;;8.40;1.98;;;10.40;99.90;;;;;;5056361;28;20053;-83
2023/03/14 01:18:47;;;;;;;5.38;1.15;;;10.50;99.90;;;;;;5055960;28;20056;-83
2023/03/14 01:21:24;;;;;;;0.17;0.10;;;10.50;99.90;;;;;;5056086;28;20049;-83
2023/03/14 01:23:51;;;;;;;3.25;0.70;;;10.60;99.90;;;;;;5056541;28;20044;-83
2023/03/14 01:26:20;;;;;;;0.38;0.32;;;10.70;99.90;;;;;;5056666;28;20045;-83
2023/03/14 01:28:46;;;;;;;1.23;0.65;;;10.70;99.90;;;;;;5057219;28;20049;-83
2023/03/14 01:31:12;;;;;;;0.10;0.05;;;10.70;99.90;;;;;;5057276;28;20083;-84
2023/03/14 01:33:39;;;;;;;4.55;0.68;;;10.70;99.90;;;;;;5058027;28;20114;-83
2023/03/14 01:36:05;;;;;;;0.52;0.52;;;10.60;99.90;;;;;;5056760;28;20123;-83
2023/03/14 01:38:32;;;;;;;1.00;0.85;;;10.60;99.90;;;;;;5057137;28;20055;-84
2023/03/14 01:40:58;;;;;;;2.33;1.42;;;10.80;99.90;;;;;;5056718;28;20080;-83
2023/03/14 01:43:24;;;;;;;0.00;0.00;;;10.90;99.90;;;;;;5055181;28;20052;-83
2023/03/14 01:46:05;;;;;;;2.13;0.75;;;10.90;99.90;;;;;;5054822;28;20402;-84
2023/03/14 01:49:09;;;;;;;0.20;0.20;;;10.90;99.90;;;;;;5055976;28;20060;-83
2023/03/14 01:51:44;;;;;;;0.63;0.47;;;10.90;99.90;;;;;;5055498;28;20423;-83
2023/03/14 01:54:35;;;;;;;0.05;0.05;;;10.90;99.90;;;;;;5055187;28;20443;-82
2023/03/14 01:57:25;;;;;;;0.05;0.05;;;10.80;99.90;;;;;;5055861;28;20132;-82
2023/03/14 02:00:13;;;;;;;0.00;0.00;;;10.70;99.90;;;;;;5055635;28;20052;-82
2023/03/14 02:02:50;;;;;;;0.00;0.00;;;10.80;99.90;;;;;;5053574;28;20159;-83
2023/03/14 02:05:21;;;;;;;0.30;0.30;;;10.80;99.90;;;;;;5054810;28;20044;-82
2023/03/14 02:07:56;;;;;;;2.78;1.42;;;10.80;99.90;;;;;;5055085;28;20060;-83
2023/03/14 02:10:28;;;;;;;0.25;0.17;;;10.80;99.90;;;;;;5054934;28;20044;-83
2023/03/14 02:12:56;;;;;;;3.20;1.13;;;10.80;99.90;;;;;;5051445;28;20045;-83
2023/03/14 02:15:23;;;;;;;0.10;0.10;;;10.70;99.90;;;;;;5055050;28;20040;-83
2023/03/14 02:17:49;;;;;;;1.00;0.45;;;11.10;99.90;;;;;;5055378;28;20045;-82
2023/03/14 02:20:37;;;;;;;0.28;0.28;;;10.60;99.90;;;;;;5055127;28;20572;-83
2023/03/14 02:23:03;;;;;;;0.65;0.38;;;10.60;99.90;;;;;;5055544;28;20045;-82
2023/03/14 02:25:51;;;;;;;2.65;0.85;;;10.90;99.90;;;;;;5054553;28;20041;-83
2023/03/14 02:28:17;;;;;;;0.00;0.00;;;10.60;99.90;;;;;;5054513;28;20072;-83
2023/03/14 02:30:42;;;;;;;0.00;0.00;;;10.50;99.90;;;;;;5052669;28;20049;-83
2023/03/14 02:33:12;;;;;;;0.10;0.10;;;10.50;99.90;;;;;;5052965;28;20056;-83
2023/03/14 02:36:11;;;;;;;0.10;0.10;;;10.50;99.90;;;;;;5055320;28;20143;-83
2023/03/14 02:38:55;;;;;;;0.47;0.47;;;10.50;99.90;;;;;;5053632;28;20051;-83
2023/03/14 02:41:21;;;;;;;0.00;0.00;;;10.40;1.00;;;;;;5053859;28;20436;-83
2023/03/14 02:43:47;;;;;;;0.10;0.10;;;10.20;99.90;;;;;;5054025;28;20099;-83
2023/03/14 02:46:15;;;;;;;8.88;0.52;;;10.20;99.90;;;;;;5086292;28;20041;-83
2023/03/14 02:48:44;;;;;;;0.00;0.00;;;10.30;99.90;;;;;;5054364;28;20052;-83
2023/03/14 02:51:11;;;;;;;0.00;0.00;;;10.30;99.90;;;;;;5054495;28;20087;-83
2023/03/14 02:53:38;;;;;;;0.00;0.00;;;10.20;99.90;;;;;;5054716;28;20041;-84
2023/03/14 02:56:04;;;;;;;0.00;0.00;;;10.10;99.90;;;;;;5055135;28;20144;-83
2023/03/14 02:58:30;;;;;;;0.00;0.00;;;10.10;99.90;;;;;;5055020;28;20703;-83
2023/03/14 03:00:56;;;;;;;0.00;0.00;;;10.10;99.90;;;;;;5054311;28;20108;-83
2023/03/14 03:03:22;;;;;;;0.20;0.20;;;10.10;99.90;;;;;;5055265;28;20045;-83
2023/03/14 03:05:50;;;;;;;0.25;0.25;;;10.00;99.90;;;;;;5055483;28;20041;-83
2023/03/14 03:08:16;;;;;;;0.73;0.55;;;10.10;99.90;;;;;;5055248;28;20041;-83
2023/03/14 03:10:41;;;;;;;0.75;0.75;;;10.20;99.90;;;;;;5055158;28;20132;-83
2023/03/14 03:13:07;;;;;;;0.22;0.20;;;10.20;99.90;;;;;;5053786;28;20092;-83
2023/03/14 03:15:33;;;;;;;1.40;1.30;;;10.20;99.90;;;;;;5054073;28;20053;-83
2023/03/14 03:17:59;;;;;;;0.00;0.00;;;10.10;99.90;;;;;;5054856;28;20045;-83
2023/03/14 03:20:24;;;;;;;0.00;0.00;;;10.10;99.90;;;;;;5054612;28;20124;-83
2023/03/14 03:22:50;;;;;;;0.40;0.35;;;10.00;1.00;;;;;;5054599;28;20052;-82
2023/03/14 03:25:16;;;;;;;0.10;0.10;;;10.00;99.90;;;;;;5054129;28;20585;-82
2023/03/14 03:27:42;;;;;;;0.40;0.35;;;9.90;99.90;;;;;;5053992;28;20052;-82
2023/03/14 03:30:09;;;;;;;0.08;0.08;;;10.40;1.00;;;;;;5053906;28;20052;-82
2023/03/14 03:32:35;;;;;;;1.08;0.52;;;9.70;99.90;;;;;;5055161;28;20037;-83
2023/03/14 03:35:03;;;;;;;1.55;0.77;;;9.70;99.90;;;;;;5055390;28;20516;-84
2023/03/14 03:37:30;;;;;;;0.75;0.55;;;9.70;99.90;;;;;;5052372;28;20049;-84
2023/03/14 03:39:56;;;;;;;0.25;0.25;;;10.00;1.00;;;;;;5052497;28;20045;-84
2023/03/14 03:42:21;;;;;;;0.00;0.00;;;9.60;1.00;;;;;;5054172;28;20379;-84
2023/03/14 03:44:48;;;;;;;0.00;0.00;;;9.60;1.00;;;;;;5054048;28;20037;-83
2023/03/14 03:47:14;;;;;;;0.10;0.10;;;9.50;99.90;;;;;;5053142;28;20069;-83
2023/03/14 03:49:39;;;;;;;0.00;0.00;;;9.50;99.90;;;;;;5054492;28;20053;-83
2023/03/14 03:52:06;;;;;;;0.10;0.10;;;9.40;99.90;;;;;;5054734;28;20083;-83
2023/03/14 03:54:32;;;;;;;0.00;0.00;;;9.30;69.40;;;;;;5054578;28;20049;-84
2023/03/14 03:56:57;;;;;;;1.60;1.15;;;9.30;99.90;;;;;;5052164;28;20055;-83
2023/03/14 03:59:23;;;;;;;1.25;1.15;;;9.20;99.90;;;;;;5054318;28;20049;-83
2023/03/14 04:01:49;;;;;;;0.00;0.00;;;9.20;99.90;;;;;;5053642;28;20045;-83
2023/03/14 04:04:14;;;;;;;1.55;0.52;;;9.10;99.90;;;;;;5053904;28;20501;-83
2023/03/14 04:06:41;;;;;;;0.10;0.10;;;9.10;99.90;;;;;;5052573;28;20491;-83
2023/03/14 04:09:08;;;;;;;0.00;0.00;;;9.10;99.90;;;;;;5052870;28;20053;-83
2023/03/14 04:11:34;;;;;;;0.10;0.10;;;9.00;99.90;;;;;;5052917;28;20041;-83
2023/03/14 04:13:59;;;;;;;0.20;0.10;;;9.00;99.90;;;;;;5053294;28;20646;-83
2023/03/14 04:16:26;;;;;;;0.60;0.50;;;9.00;99.90;;;;;;5052878;28;20072;-83
2023/03/14 04:18:52;;;;;;;0.15;0.15;;;9.00;99.90;;;;;;5052024;28;20522;-83
2023/03/14 04:21:18;;;;;;;0.00;0.00;;;9.00;99.90;;;;;;5051149;28;20040;-84
2023/03/14 04:23:44;;;;;;;0.57;0.47;;;9.00;99.90;;;;;;5051140;28;20049;-83
2023/03/14 04:26:09;;;;;;;0.10;0.10;;;9.00;99.90;;;;;;5052000;28;20048;-83
2023/03/14 04:28:36;;;;;;;1.67;0.95;;;8.90;99.90;;;;;;5049720;28;20048;-84
2023/03/14 04:31:10;;;;;;;0.85;0.55;;;8.90;99.90;;;;;;5050274;28;20041;-83
2023/03/14 04:33:37;;;;;;;0.20;0.20;;;8.90;99.90;;;;;;5048392;28;20049;-85
2023/03/14 04:36:03;;;;;;;0.55;0.55;;;8.80;99.90;;;;;;5046667;28;20446;-84
2023/03/14 04:38:29;;;;;;;0.60;0.52;;;8.80;99.90;;;;;;5046898;28;20126;-84
2023/03/14 04:40:55;;;;;;;0.40;0.20;;;8.80;99.90;;;;;;5046300;28;20073;-84
2023/03/14 04:43:21;;;;;;;0.00;0.00;;;8.80;99.90;;;;;;5047533;28;20616;-83
2023/03/14 04:45:46;;;;;;;4.43;0.57;;;8.70;99.90;;;;;;5048235;28;20041;-83
2023/03/14 04:48:13;;;;;;;1.13;0.77;;;8.70;99.90;;;;;;5048686;28;20557;-83
2023/03/14 04:50:39;;;;;;;3.45;1.42;;;8.70;99.90;;;;;;5048823;28;20053;-84
2023/03/14 04:53:05;;;;;;;0.90;0.13;;;8.80;99.90;;;;;;5049145;28;20122;-83
2023/03/14 04:55:32;;;;;;;0.00;0.00;;;8.70;99.90;;;;;;5048164;28;20052;-84
2023/03/14 04:57:59;;;;;;;0.20;0.20;;;8.70;99.90;;;;;;5048952;28;21303;-83
2023/03/14 05:00:24;;;;;;;0.05;0.05;;;8.70;99.90;;;;;;5046466;28;20056;-83
2023/03/14 05:02:50;;;;;;;0.75;0.55;;;8.70;99.90;;;;;;5029509;28;20042;-83
2023/03/14 05:05:16;;;;;;;0.30;0.30;;;8.70;99.90;;;;;;5029375;28;20044;-84
2023/03/14 05:07:42;;;;;;;0.10;0.10;;;8.70;99.90;;;;;;5048255;28;20407;-84
2023/03/14 05:10:09;;;;;;;0.10;0.10;;;8.70;99.90;;;;;;5047428;28;20052;-83
2023/03/14 05:12:35;;;;;;;2.40;1.70;;;8.80;99.90;;;;;;5048514;28;20068;-83
2023/03/14 05:15:00;;;;;;;3.45;2.30;;;8.70;99.90;;;;;;5049143;28;20483;-83
2023/03/14 05:17:26;;;;;;;4.80;1.55;;;8.70;99.90;;;;;;5050017;28;20049;-83
2023/03/14 05:19:51;;;;;;;0.47;0.40;;;8.70;99.90;;;;;;5050184;28;20049;-83
2023/03/14 05:22:17;;;;;;;13.32;2.95;;;8.70;99.90;;;;;;5053844;28;20450;-83
2023/03/14 05:24:43;;;;;;;0.00;0.00;;;8.70;99.90;;;;;;5053425;28;20049;-83
2023/03/14 05:27:08;;;;;;;0.47;0.43;;;8.70;99.90;;;;;;5054725;28;20044;-83
2023/03/14 05:29:34;;;;;;;1.40;0.82;;;8.70;99.90;;;;;;5054494;28;20112;-84
2023/03/14 05:32:00;;;;;;;3.03;0.77;;;8.70;99.90;;;;;;5053885;28;20527;-84
2023/03/14 05:34:26;;;;;;;0.10;0.10;;;8.70;99.90;;;;;;5052878;28;20498;-84
2023/03/14 05:36:51;;;;;;;8.68;1.75;;;8.60;99.90;;;;;;5052463;28;20049;-84
2023/03/14 05:39:17;;;;;;;1.55;0.65;;;8.70;99.90;;;;;;5049793;28;20076;-84
2023/03/14 05:41:43;;;;;;;9.57;0.95;;;8.70;99.90;;;;;;5052191;28;20040;-85
2023/03/14 05:44:08;;;;;;;0.25;0.25;;;8.70;99.90;;;;;;5053163;28;20469;-84
2023/03/14 05:46:34;;;;;;;0.00;0.00;;;8.60;99.90;;;;;;5053508;28;20049;-84
2023/03/14 05:49:00;;;;;;;0.28;0.28;;;8.60;99.90;;;;;;5052812;28;20088;-84
2023/03/14 05:51:26;;;;;;;0.60;0.60;;;8.60;99.90;;;;;;5053225;28;20463;-85
2023/03/14 05:53:51;;;;;;;1.25;1.13;;;8.60;99.90;;;;;;5054221;28;20041;-84
2023/03/14 05:56:17;;;;;;;0.10;0.10;;;8.60;99.90;;;;;;5055532;28;20045;-84
2023/03/14 05:58:43;;;;;;;1.85;0.70;;;8.60;99.90;;;;;;5054113;28;20402;-85
2023/03/14 06:01:09;;;;;;;0.00;0.00;;;8.60;99.90;;;;;;5052807;28;20058;-84
2023/03/14 06:03:35;;;;;;;1.00;0.65;;;8.60;99.90;;;;;;5053341;28;20110;-84
2023/03/14 06:06:01;;;;;;;0.00;0.00;;;8.60;99.90;;;;;;5067902;28;20045;-85
2023/03/14 06:08:27;;;;;;;0.70;0.70;;;8.60;99.90;;;;;;5051465;28;20055;-85
2023/03/14 06:10:53;;;;;;;0.00;0.00;;;8.60;99.90;;;;;;5041395;28;20041;-85
2023/03/14 06:13:19;;;;;;;0.00;0.00;;;8.70;99.90;;;;;;5053946;28;20455;-85
2023/03/14 06:15:45;;;;;;;0.22;0.22;;;8.60;99.90;;;;;;5053591;28;20045;-85
2023/03/14 06:18:12;;;;;;;12.40;0.80;;;8.60;99.90;;;;;;5055168;28;20074;-85
2023/03/14 06:20:38;;;;;;;0.30;0.30;;;8.60;99.90;;;;;;5053776;28;20482;-85
2023/03/14 06:23:06;;;;;;;0.30;0.22;;;8.60;99.90;;;;;;5047590;28;20049;-85
2023/03/14 06:25:32;;;;;;;0.80;0.80;;;8.60;99.90;;;;;;5043920;28;20550;-85
2023/03/14 06:27:58;;;;;;;0.10;0.10;;;8.60;99.90;;;;;;5043724;28;20130;-85
2023/03/14 06:30:24;;;;;;;0.20;0.20;;;8.60;99.90;;;;;;5037442;28;20037;-85
2023/03/14 06:32:49;;;;;;;0.00;0.00;;;8.60;99.90;;;;;;5042368;28;20049;-84
2023/03/14 06:35:15;;;;;;;0.00;0.00;;;8.60;99.90;;;;;;5043255;28;20037;-85
2023/03/14 06:37:41;;;;;;;0.30;0.30;;;8.70;99.90;;;;;;5042578;28;20041;-85
2023/03/14 06:40:08;;;;;;;0.90;0.88;;;8.70;99.90;;;;;;5043587;28;20051;-85
2023/03/14 06:42:34;;;;;;;0.35;0.25;;;8.70;99.90;;;;;;5045686;28;20045;-86
2023/03/14 06:44:59;;;;;;;1.65;0.43;;;8.60;99.90;;;;;;5037615;28;20534;-86
2023/03/14 06:47:25;;;;;;;0.00;0.00;;;8.70;99.90;;;;;;5043697;28;20049;-86
2023/03/14 06:49:51;;;;;;;0.30;0.20;;;8.60;99.90;;;;;;5041970;28;20052;-87
2023/03/14 06:52:16;;;;;;;1.27;0.35;;;8.60;99.90;;;;;;5031951;28;20555;-86
2023/03/14 06:54:42;;;;;;;0.03;0.03;;;8.50;99.90;;;;;;5043235;28;20048;-86
2023/03/14 06:57:07;;;;;;;1.00;0.15;;;8.50;99.90;;;;;;5044227;28;20504;-87
2023/03/14 06:59:33;;;;;;;0.55;0.43;;;9.20;99.90;;;;;;5045584;28;20487;-88
2023/03/14 07:01:59;;;;;;;0.00;0.00;;;7.60;99.90;;;;;;5045059;28;20087;-87
2023/03/14 07:04:24;;;;;;;0.10;0.10;;;7.20;99.90;;;;;;5045644;28;20474;-87
2023/03/14 07:06:50;;;;;;;0.10;0.08;;;6.90;99.90;;;;;;5043986;28;20454;-86
2023/03/14 07:09:19;;;;;;;0.65;0.65;;;6.70;99.90;;;;;;5044427;28;20052;-87
2023/03/14 07:11:45;;;;;;;0.00;0.00;;;6.50;99.90;;;;;;5075507;28;20052;-86
2023/03/14 07:14:11;;;;;;;3.15;0.52;;;6.40;99.90;;;;;;5044097;28;20041;-86
2023/03/14 07:16:36;;;;;;;0.85;0.32;;;6.30;99.90;;;;;;5044084;28;20098;-86
2023/03/14 07:19:03;;;;;;;0.00;0.00;;;6.00;99.90;;;;;;5043636;28;20036;-86
2023/03/14 07:21:29;;;;;;;0.00;0.00;;;5.80;99.90;;;;;;5043073;28;20049;-86
2023/03/14 07:23:55;;;;;;;0.00;0.00;;;5.60;99.90;;;;;;5042900;28;20048;-85
2023/03/14 07:26:21;;;;;;;0.00;0.00;;;5.40;99.90;;;;;;5074780;28;20467;-85
2023/03/14 07:28:47;;;;;;;0.00;0.00;;;5.30;99.90;;;;;;5074957;28;20113;-85
2023/03/14 07:31:13;;;;;;;0.85;0.45;;;5.20;99.90;;;;;;5042204;28;20056;-85
2023/03/14 07:33:38;;;;;;;0.88;0.88;;;5.00;99.90;;;;;;5043169;28;20045;-85
2023/03/14 07:36:04;;;;;;;0.22;0.22;;;4.80;99.90;;;;;;5043279;28;20384;-85
2023/03/14 07:38:30;;;;;;;0.00;0.00;;;4.70;99.90;;;;;;5043954;28;20045;-85
2023/03/14 07:41:05;;;;;;;0.00;0.00;;;4.60;99.90;;;;;;5043545;28;20049;-85
2023/03/14 07:43:31;;;;;;;0.00;0.00;;;4.50;99.90;;;;;;5044113;28;20090;-85
2023/03/14 07:45:56;;;;;;;0.00;0.00;;;4.30;99.90;;;;;;5043882;28;20045;-84
2023/03/14 07:48:24;;;;;;;0.30;0.30;;;4.10;99.90;;;;;;5044429;28;20060;-84
2023/03/14 07:50:51;;;;;;;0.68;0.68;;;4.10;99.90;;;;;;5044321;28;20041;-84
2023/03/14 07:53:16;;;;;;;0.00;0.00;;;4.00;99.90;;;;;;5076646;28;20184;-84
2023/03/14 07:55:42;;;;;;;0.30;0.30;;;3.90;99.90;;;;;;5043645;28;20176;-85
2023/03/14 07:58:08;;;;;;;0.00;0.00;;;3.80;99.90;;;;;;5043832;28;20182;-85
2023/03/14 08:00:34;;;;;;;0.00;0.00;;;3.80;99.90;;;;;;5043828;28;20493;-85
2023/03/14 08:02:59;;;;;;;0.00;0.00;;;3.80;99.90;;;;;;5043441;28;20138;-86
2023/03/14 08:05:25;;;;;;;0.00;0.00;;;3.80;99.90;;;;;;5043772;28;20049;-85
2023/03/14 08:07:51;;;;;;;0.00;0.00;;;3.80;99.90;;;;;;5043952;28;20052;-85
2023/03/14 08:10:22;;;;;;;0.00;0.00;;;3.80;99.90;;;;;;5043387;28;20072;-85
2023/03/14 08:12:54;;;;;;;0.00;0.00;;;3.80;99.90;;;;;;5043394;28;20045;-84
2023/03/14 08:15:20;;;;;;;0.00;0.00;;;2.50;99.90;;;;;;5043644;28;20182;-84
2023/03/14 08:17:50;;;;;;;0.00;0.00;;;3.90;99.90;;;;;;5043676;28;20108;-84
2023/03/14 08:20:26;;;;;;;0.00;0.00;;;4.00;99.90;;;;;;5076773;28;20127;-84
2023/03/14 08:22:52;;;;;;;0.00;0.00;;;3.90;99.90;;;;;;5044192;28;20534;-84
2023/03/14 08:25:18;;;;;;;0.00;0.00;;;4.00;99.90;;;;;;5043866;28;20044;-84
2023/03/14 08:27:44;;;;;;;0.00;0.00;;;4.10;99.90;;;;;;5043250;28;20045;-84
2023/03/14 08:30:12;;;;;;;8.75;1.80;;;4.20;99.90;;;;;;5044302;28;20045;-84
2023/03/14 08:32:38;;;;;;;0.03;0.03;;;4.30;99.90;;;;;;5044136;28;20140;-84
2023/03/14 08:35:05;;;;;;;0.35;0.35;;;4.20;99.90;;;;;;5043654;28;20183;-84
2023/03/14 08:37:32;;;;;;;0.00;0.00;;;4.20;99.90;;;;;;5043315;28;20113;-84
2023/03/14 08:39:58;;;;;;;0.00;0.00;;;4.30;99.90;;;;;;5044038;28;20426;-84
2023/03/14 08:42:24;;;;;;;0.00;0.00;;;4.30;99.90;;;;;;5043827;28;20091;-84
2023/03/14 08:44:51;;;;;;;0.00;0.00;;;4.40;99.90;;;;;;5044309;28;20065;-84
2023/03/14 08:47:17;;;;;;;0.10;0.10;;;4.60;99.90;;;;;;5044012;28;20491;-84
2023/03/14 08:49:42;;;;;;;1.98;1.88;;;4.60;99.90;;;;;;5043873;28;20052;-84
2023/03/14 08:52:08;;;;;;;0.40;0.30;;;4.50;99.90;;;;;;5043235;28;20140;-84
2023/03/14 08:54:34;;;;;;;0.00;0.00;;;4.50;99.90;;;;;;5043153;28;20432;-84
2023/03/14 08:57:00;;;;;;;0.40;0.40;;;4.60;99.90;;;;;;5046940;28;20045;-85
2023/03/14 08:59:25;;;;;;;0.00;0.00;;;4.60;99.90;;;;;;5047161;28;20044;-84
2023/03/14 09:01:51;;;;;;;0.00;0.00;;;4.80;99.90;;;;;;5046520;28;20761;-85
2023/03/14 09:04:17;;;;;;;0.52;0.52;;;4.80;99.90;;;;;;5046426;28;20414;-85
2023/03/14 09:06:43;;;;;;;1.48;1.38;;;4.90;99.90;;;;;;5046449;28;20064;-85
2023/03/14 09:09:09;;;;;;;0.00;0.00;;;5.00;99.90;;;;;;5046444;28;20343;-84
2023/03/14 09:11:35;;;;;;;7.22;3.50;;;5.20;99.90;;;;;;5046778;28;20044;-84
2023/03/14 09:14:01;;;;;;;0.00;0.00;;;5.30;99.90;;;;;;5046555;28;20067;-84
2023/03/14 09:16:26;;;;;;;1.90;0.30;;;5.40;99.90;;;;;;5047026;28;20068;-85
2023/03/14 09:18:54;;;;;;;0.00;0.00;;;5.40;99.90;;;;;;5047063;28;20045;-85
2023/03/14 09:21:21;;;;;;;0.00;0.00;;;5.50;99.90;;;;;;5048407;28;20045;-85
2023/03/14 09:23:47;;;;;;;0.70;0.70;;;5.60;99.90;;;;;;5045850;28;20064;-85
2023/03/14 09:26:13;;;;;;;0.30;0.30;;;5.50;99.90;;;;;;5045467;28;20040;-84
2023/03/14 09:28:38;;;;;;;0.70;0.70;;;5.50;99.90;;;;;;5077995;28;20059;-85
2023/03/14 09:31:07;;;;;;;0.00;0.00;;;5.70;99.90;;;;;;5078075;28;20049;-85
2023/03/14 09:33:33;;;;;;;0.47;0.47;;;6.70;99.90;;;;;;5045306;28;20055;-85
2023/03/14 09:35:59;;;;;;;1.48;1.45;;;5.80;99.90;;;;;;5045874;28;20186;-85
2023/03/14 09:38:26;;;;;;;0.00;0.00;;;5.90;99.90;;;;;;5045358;28;20605;-85
2023/03/14 09:40:53;;;;;;;0.20;0.20;;;5.90;99.90;;;;;;5046237;28;20052;-85
2023/03/14 09:43:21;;;;;;;0.75;0.75;;;5.90;99.90;;;;;;5045759;28;20094;-85
2023/03/14 09:45:48;;;;;;;0.30;0.30;;;5.90;99.90;;;;;;5045804;28;20041;-85
2023/03/14 09:48:26;;;;;;;7.60;1.30;;;5.80;99.90;;;;;;5044953;28;20057;-85
2023/03/14 09:50:54;;;;;;;3.53;0.20;;;5.70;99.90;;;;;;5044905;28;20426;-85
2023/03/14 09:53:28;;;;;;;0.30;0.28;;;5.60;99.90;;;;;;5045555;28;20044;-85
2023/03/14 09:55:57;;;;;;;0.30;0.30;;;5.60;99.90;;;;;;5043272;28;20130;-85
2023/03/14 09:58:24;;;;;;;0.13;0.13;;;5.50;99.90;;;;;;5045120;28;20063;-85
2023/03/14 10:00:53;;;;;;;5.05;0.80;;;5.50;99.90;;;;;;5076530;28;20056;-85
2023/03/14 10:03:31;;;;;;;2.42;1.67;;;5.60;99.90;;;;;;5048493;28;20053;-85
2023/03/14 10:05:57;;;;;;;0.00;0.00;;;5.80;99.90;;;;;;5057237;28;20104;-85
2023/03/14 10:08:23;;;;;;;8.95;1.35;;;5.90;99.90;;;;;;5046173;28;20092;-85
2023/03/14 10:10:49;;;;;;;1.88;1.30;;;6.00;1.00;;;;;;5044430;28;20068;-85
2023/03/14 10:13:19;;;;;;;0.32;0.30;;;6.10;99.90;;;;;;5043997;28;20037;-85
2023/03/14 10:15:58;;;;;;;4.22;0.98;;;6.30;1.00;;;;;;5044692;28;20236;-85
2023/03/14 10:18:24;;;;;;;0.00;0.00;;;6.30;99.90;;;;;;5043935;28;20052;-85
2023/03/14 10:21:02;;;;;;;8.60;2.30;;;6.30;99.90;;;;;;5044162;28;20139;-85
2023/03/14 10:23:31;;;;;;;0.88;0.85;;;7.30;99.90;;;;;;5044884;28;20044;-85
2023/03/14 10:26:33;;;;;;;0.00;0.00;;;6.20;99.90;;;;;;5044066;28;20107;-85
2023/03/14 10:29:12;;;;;;;0.00;0.00;;;6.10;99.90;;;;;;5042383;28;20069;-84
2023/03/14 10:32:02;;;;;;;3.85;1.65;;;6.00;1.00;;;;;;5044234;28;20430;-84
2023/03/14 10:34:42;;;;;;;0.00;0.00;;;6.10;1.00;;;;;;5043609;28;20053;-84
2023/03/14 10:37:25;;;;;;;0.00;0.00;;;6.20;1.00;;;;;;5044013;28;20052;-84
2023/03/14 10:39:55;;;;;;;0.17;0.17;;;6.40;99.90;;;;;;5043879;28;20041;-85
2023/03/14 10:42:29;;;;;;;0.00;0.00;;;6.50;99.90;;;;;;5044041;28;20053;-84
2023/03/14 10:44:58;;;;;;;0.38;0.38;;;6.50;21.50;;;;;;5043531;28;20041;-84
2023/03/14 10:47:28;;;;;;;5.35;2.63;;;6.60;99.90;;;;;;5044297;28;20057;-85
2023/03/14 10:49:54;;;;;;;0.00;0.00;;;6.80;1.00;;;;;;5043910;28;20060;-84
2023/03/14 10:52:25;;;;;;;0.00;0.00;;;6.90;1.00;;;;;;5075803;28;20048;-85
2023/03/14 10:54:59;;;;;;;1.08;1.00;;;7.00;11.40;;;;;;5043738;28;20095;-85
2023/03/14 10:57:26;;;;;;;7.88;1.45;;;7.00;1.00;;;;;;5040730;28;20060;-85
2023/03/14 10:59:53;;;;;;;1.08;0.43;;;7.00;1.00;;;;;;5041099;28;20049;-84
2023/03/14 11:02:57;;;;;;;0.38;0.32;;;7.00;1.00;;;;;;5041407;28;20044;-85
2023/03/14 11:05:49;;;;;;;26.75;1.75;;;6.90;99.90;;;;;;5041172;28;20049;-84
2023/03/14 11:08:23;;;;;;;0.40;0.40;;;6.90;99.90;;;;;;5041336;28;20048;-84
2023/03/14 11:10:54;;;;;;;0.47;0.47;;;7.10;99.90;;;;;;5041038;28;20453;-85
2023/03/14 11:13:20;;;;;;;0.00;0.00;;;7.50;99.90;;;;;;5041424;28;20045;-84
2023/03/14 11:16:23;;;;;;;0.90;0.90;;;7.50;99.90;;;;;;5041310;28;20098;-86
2023/03/14 11:19:01;;;;;;;5.93;0.65;;;7.30;99.90;;;;;;5041301;28;20437;-84
2023/03/14 11:21:35;;;;;;;0.00;0.00;;;7.40;99.90;;;;;;5041981;28;20044;-84
2023/03/14 11:24:20;;;;;;;0.00;0.00;;;7.70;99.90;;;;;;5042882;28;20064;-84
2023/03/14 11:26:52;;;;;;;0.05;0.05;;;7.70;99.90;;;;;;5075592;28;20577;-84
2023/03/14 11:29:18;;;;;;;0.57;0.50;;;7.50;99.90;;;;;;5044330;28;20044;-84
2023/03/14 11:31:45;;;;;;;0.47;0.45;;;7.50;99.90;;;;;;5043480;28;20064;-84
2023/03/14 11:34:20;;;;;;;0.00;0.00;;;7.80;99.90;;;;;;5043860;28;20379;-84
2023/03/14 11:37:01;;;;;;;0.00;0.00;;;8.30;99.90;;;;;;5043465;28;20048;-84
2023/03/14 11:39:38;;;;;;;0.00;0.00;;;8.20;99.90;;;;;;5043294;28;20359;-84
2023/03/14 11:42:03;;;;;;;;;;;7.90;90.10;;;;;;5044292;28;20053;-84
2023/03/14 11:44:34;;;;;;;0.00;0.00;;;7.60;42.80;;;;;;5043698;28;20341;-84
2023/03/14 11:47:22;;;;;;;0.10;0.10;;;7.40;37.00;;;;;;5043761;28;20041;-84
2023/03/14 11:49:58;;;;;;;2.72;0.40;;;7.20;19.00;;;;;;5044058;28;20123;-84
2023/03/14 11:52:34;;;;;;;0.10;0.10;;;7.50;24.30;;;;;;5043924;28;20051;-84
2023/03/14 11:55:16;;;;;;;0.05;0.05;;;8.00;29.40;;;;;;5043344;28;20072;-84
2023/03/14 11:57:42;;;;;;;0.20;0.10;;;8.40;56.60;;;;;;5043639;28;20505;-84
2023/03/14 12:00:16;;;;;;;0.00;0.00;;;8.60;46.90;;;;;;5043134;28;20060;-84
2023/03/14 12:03:02;;;;;;;0.22;0.22;;;8.90;42.30;;;;;;5043481;28;20047;-84
2023/03/14 12:05:33;;;;;;;0.25;0.22;;;9.30;61.70;;;;;;5043741;28;20036;-84
2023/03/14 12:08:08;;;;;;;0.08;0.08;;;9.50;67.50;;;;;;5075714;28;21085;-84
2023/03/14 12:10:46;;;;;;;0.00;0.00;;;9.40;51.70;;;;;;5044436;28;20051;-83
2023/03/14 12:13:14;;;;;;;0.00;0.00;;;9.20;41.70;;;;;;5044285;28;20110;-84
2023/03/14 12:16:02;;;;;;;0.00;0.00;;;9.20;44.80;;;;;;5044670;28;20595;-84
2023/03/14 12:18:41;;;;;;;0.75;0.50;;;9.20;26.90;;;;;;5042218;28;20061;-84
2023/03/14 12:21:11;;;;;;;0.22;0.22;;;9.50;25.00;;;;;;5044167;28;20057;-84
2023/03/14 12:23:50;;;;;;;0.00;0.00;;;9.30;22.50;;;;;;5044611;28;20059;-84
2023/03/14 12:26:25;;;;;;;2.78;0.63;;;9.50;44.60;;;;;;5076332;28;20044;-83
2023/03/14 12:29:11;;;;;;;0.00;0.00;;;9.40;26.00;;;;;;5047975;28;20044;-84
2023/03/14 12:31:48;;;;;;;0.00;0.00;;;9.40;12.80;;;;;;5068940;28;20087;-83
2023/03/14 12:34:14;;;;;;;0.00;0.00;;;9.30;5.10;;;;;;5067680;28;20071;-84
2023/03/14 12:36:49;;;;;;;0.00;0.00;;;9.40;11.70;;;;;;5102129;28;20057;-83
2023/03/14 12:39:21;;;;;;;0.08;0.08;;;9.70;24.70;;;;;;5049708;28;20053;-83
2023/03/14 12:42:26;;;;;;;0.00;0.00;;;9.60;19.40;;;;;;5050066;28;20079;-83
2023/03/14 12:44:51;;;;;;;0.10;0.10;;;9.40;14.10;;;;;;5049284;28;20041;-83
2023/03/14 12:47:20;;;;;;;1.10;1.00;;;9.00;8.90;;;;;;5049369;28;20140;-84
2023/03/14 12:49:52;;;;;;;10.32;0.32;;;8.90;10.10;;;;;;5049792;28;20088;-83
2023/03/14 12:52:30;;;;;;;0.85;0.80;;;9.50;47.10;;;;;;5081345;28;20052;-83
2023/03/14 12:55:06;;;;;;;0.98;0.95;;;10.10;24.40;;;;;;5048639;28;20119;-84
2023/03/14 12:57:39;;;;;;;0.65;0.55;;;9.90;18.50;;;;;;5048612;28;20048;-83
2023/03/14 13:00:20;;;;;;;0.80;0.77;;;9.60;16.00;;;;;;5081157;28;20132;-83
2023/03/14 13:02:49;;;;;;;6.32;1.25;;;9.50;27.80;;;;;;5050609;28;20045;-83
2023/03/14 13:05:23;;;;;;;1.40;0.40;;;9.50;1.00;;;;;;5052323;28;20366;-83